Toronto, Ohio
Current Conditions -  °F | °C
As of 3:53 AM on Saturday 29 Nov 2014 (Local Time) from KHLG Reporting Station
Overcast Overcast  
Wind Chill: 23°   Ceiling: 7500
Heat Index: 29°   Visibility: 10mi
Dew Point: 20°   Wind: 6mph
Humidity: 69%   Direction: 140°SE
Pressure: 30.12"   Gusts: NA
Location:  40.46°N, 80.61°W
Report Text: KHLG 290853Z AUTO 14005KT 10SM OVC075 M02/M07 A3012 RMK AO2 SLP218 T10171067 58008
Loading
Personal Weather Stations






























Interactive Weather Map New forecast layout! Learn more

10-Day Weather Forecast

Advertisements
Track Severe Weather on mobile